< < Back
Terminal Aerodrome Forecast


Current Version              Previous Versions:   1  2  3  4  5  6  7  8  9  

Terminal Aerodrome Forecast

297
FTUS42 KGSP 261436 AAB
TAFGSP
TAF AMD
KGSP 261436Z 2615/2712 05007KT P6SM OVC014
      TEMPO 2615/2616 SCT014 BKN025
     FM261600 05006KT P6SM SCT040
     FM262000 10006KT P6SM SCT050
     FM270400 20003KT P6SM SCT060 BKN250=

Latest METAR

250
SAUS70 KWBC 271400 RRB
MTRGSP
METAR KGSP 271353Z VRB04KT 10SM CLR 27/21 A3012 RMK AO2 SLP187
T02670211


USA.gov is the U.S. government's official web portal to all federal, state and local government web resources and services.